Time;durP1;ratioP1;P1;durP2;ratioP2;P2;SDS_P1;SDS_P2;PMS_P1;PMS_P2;Temp;Humidity;BMP_temperature;BMP_pressure;BME280_temperature;BME280_humidity;BME280_pressure;Samples;Min_cycle;Max_cycle;Signal;HPM_P1;HPM_P2
2023/03/18 00:01:14;;;;;;;5.97;2.72;;;11.10;99.90;;;;;;5053312;28;20040;-64
2023/03/18 00:03:41;;;;;;;6.65;2.47;;;11.30;99.90;;;;;;5052970;28;20036;-64
2023/03/18 00:06:11;;;;;;;4.22;2.28;;;11.20;99.90;;;;;;5052103;28;20021;-64
2023/03/18 00:08:39;;;;;;;5.85;2.58;;;11.30;99.90;;;;;;5053594;28;20431;-64
2023/03/18 00:11:06;;;;;;;5.13;2.40;;;11.40;99.90;;;;;;5052971;28;20108;-64
2023/03/18 00:13:33;;;;;;;5.93;2.30;;;11.30;99.90;;;;;;5052785;28;20069;-64
2023/03/18 00:16:01;;;;;;;7.40;3.30;;;11.40;99.90;;;;;;5052993;28;20057;-64
2023/03/18 00:18:27;;;;;;;8.52;3.42;;;11.50;99.90;;;;;;5053518;28;20079;-64
2023/03/18 00:20:53;;;;;;;9.95;4.68;;;11.50;99.90;;;;;;5053150;28;20047;-63
2023/03/18 00:23:19;;;;;;;8.02;4.97;;;11.30;99.90;;;;;;5052806;28;20393;-64
2023/03/18 00:25:47;;;;;;;7.47;3.00;;;11.40;99.90;;;;;;5052620;28;20028;-64
2023/03/18 00:28:13;;;;;;;5.95;2.78;;;11.40;99.90;;;;;;5053169;28;20036;-63
2023/03/18 00:30:40;;;;;;;7.57;3.50;;;11.30;99.90;;;;;;5052734;28;20393;-64
2023/03/18 00:33:08;;;;;;;6.85;3.13;;;11.40;99.90;;;;;;5052702;28;20025;-64
2023/03/18 00:35:35;;;;;;;7.53;2.47;;;11.40;99.90;;;;;;5052467;28;20025;-64
2023/03/18 00:38:02;;;;;;;5.63;2.40;;;11.30;99.90;;;;;;5052747;28;20024;-64
2023/03/18 00:40:41;;;;;;;6.90;3.00;;;11.30;99.90;;;;;;5052276;28;20079;-64
2023/03/18 00:43:11;;;;;;;7.40;2.85;;;11.30;99.90;;;;;;5052532;28;20024;-64
2023/03/18 00:45:39;;;;;;;6.00;2.40;;;11.20;99.90;;;;;;5052481;28;20120;-64
2023/03/18 00:48:06;;;;;;;8.13;2.20;;;11.30;99.90;;;;;;5052440;28;20024;-64
2023/03/18 00:50:36;;;;;;;5.47;2.65;;;11.30;99.90;;;;;;5052503;28;20025;-63
2023/03/18 00:53:02;;;;;;;7.80;2.65;;;11.20;99.90;;;;;;5052432;28;20063;-64
2023/03/18 00:55:28;;;;;;;6.85;2.60;;;11.10;99.90;;;;;;5052264;28;20029;-64
2023/03/18 00:57:54;;;;;;;10.70;2.78;;;11.20;99.90;;;;;;5052280;28;20102;-64
2023/03/18 01:00:20;;;;;;;9.23;2.53;;;11.00;99.90;;;;;;5052279;28;20136;-63
2023/03/18 01:02:48;;;;;;;8.43;3.30;;;11.00;99.90;;;;;;5052141;28;20512;-64
2023/03/18 01:05:15;;;;;;;6.10;2.45;;;11.10;99.90;;;;;;5052611;28;20025;-64
2023/03/18 01:07:41;;;;;;;6.00;2.58;;;11.10;99.90;;;;;;5051545;28;20520;-64
2023/03/18 01:10:08;;;;;;;6.40;2.90;;;11.20;99.90;;;;;;5052358;28;20096;-64
2023/03/18 01:12:35;;;;;;;6.80;2.83;;;11.10;99.90;;;;;;5063545;28;20075;-63
2023/03/18 01:15:03;;;;;;;7.80;3.00;;;11.10;99.90;;;;;;5071993;28;20025;-64
2023/03/18 01:17:30;;;;;;;6.60;2.95;;;11.20;99.90;;;;;;5071795;28;20500;-64
2023/03/18 01:19:56;;;;;;;6.57;2.90;;;11.20;99.90;;;;;;5071980;28;20078;-64
2023/03/18 01:22:22;;;;;;;8.80;3.10;;;11.30;99.90;;;;;;5072082;28;20501;-64
2023/03/18 01:24:48;;;;;;;5.70;2.70;;;11.20;99.90;;;;;;5071505;28;20020;-64
2023/03/18 01:27:13;;;;;;;8.25;2.97;;;11.20;99.90;;;;;;5072372;28;20032;-63
2023/03/18 01:29:40;;;;;;;8.48;2.80;;;11.20;99.90;;;;;;5072005;28;20032;-64
2023/03/18 01:32:05;;;;;;;7.90;3.08;;;11.20;99.90;;;;;;5072039;28;20028;-64
2023/03/18 01:34:31;;;;;;;9.80;3.17;;;11.20;99.90;;;;;;5071854;28;20028;-64
2023/03/18 01:36:57;;;;;;;9.82;3.10;;;11.40;99.90;;;;;;5071356;28;20396;-64
2023/03/18 01:39:24;;;;;;;9.77;3.25;;;11.30;99.90;;;;;;5051485;28;20041;-64
2023/03/18 01:41:50;;;;;;;9.25;3.00;;;11.40;99.90;;;;;;5051942;28;20048;-63
2023/03/18 01:44:21;;;;;;;9.63;3.50;;;11.40;99.90;;;;;;5051976;28;20463;-64
2023/03/18 01:46:49;;;;;;;11.43;3.42;;;11.30;99.90;;;;;;5052037;28;20028;-64
2023/03/18 01:49:16;;;;;;;9.02;3.42;;;11.30;99.90;;;;;;5051711;28;20029;-64
2023/03/18 01:51:47;;;;;;;12.73;3.28;;;11.30;99.90;;;;;;5051837;28;20025;-64
2023/03/18 01:54:14;;;;;;;9.77;3.53;;;11.20;99.90;;;;;;5051545;28;20033;-64
2023/03/18 01:56:41;;;;;;;11.25;3.58;;;11.20;99.90;;;;;;5051606;28;20029;-64
2023/03/18 01:59:08;;;;;;;10.75;3.85;;;11.20;99.90;;;;;;5051957;28;20029;-64
2023/03/18 02:02:02;;;;;;;11.13;3.95;;;11.20;99.90;;;;;;5051604;28;20059;-64
2023/03/18 02:04:33;;;;;;;12.63;4.07;;;11.10;99.90;;;;;;5051695;28;20021;-64
2023/03/18 02:07:00;;;;;;;13.38;3.75;;;11.30;99.90;;;;;;5051341;28;20037;-63
2023/03/18 02:09:26;;;;;;;12.02;3.83;;;11.20;99.90;;;;;;5051325;28;20029;-64
2023/03/18 02:11:51;;;;;;;11.05;3.80;;;11.30;99.90;;;;;;5051444;28;20508;-64
2023/03/18 02:14:21;;;;;;;12.68;3.63;;;11.30;99.90;;;;;;5051492;28;20033;-64
2023/03/18 02:16:53;;;;;;;15.20;4.40;;;11.40;99.90;;;;;;5051478;28;20043;-64
2023/03/18 02:19:57;;;;;;;13.38;4.07;;;11.40;99.90;;;;;;5051441;28;20037;-64
2023/03/18 02:22:28;;;;;;;15.90;4.10;;;11.30;99.90;;;;;;5009191;28;20462;-64
2023/03/18 02:25:26;;;;;;;13.48;4.45;;;11.30;99.90;;;;;;5009456;28;20030;-64
2023/03/18 02:27:58;;;;;;;14.10;3.85;;;11.30;99.90;;;;;;5010316;28;20121;-64
2023/03/18 02:30:30;;;;;;;14.00;4.28;;;11.20;99.90;;;;;;5013548;28;20096;-64
2023/03/18 02:32:58;;;;;;;11.50;3.67;;;11.20;99.90;;;;;;4996551;28;20407;-64
2023/03/18 02:35:25;;;;;;;11.85;4.00;;;11.20;99.90;;;;;;5012915;28;20029;-64
2023/03/18 02:37:51;;;;;;;13.52;4.70;;;11.20;99.90;;;;;;5012480;28;20036;-64
2023/03/18 02:40:48;;;;;;;12.75;4.53;;;11.30;99.90;;;;;;5012812;28;20053;-64
2023/03/18 02:43:17;;;;;;;13.07;4.30;;;11.30;99.90;;;;;;4935561;29;20044;-64
2023/03/18 02:46:05;;;;;;;13.70;4.32;;;11.40;99.90;;;;;;4935269;29;20051;-64
2023/03/18 02:48:38;;;;;;;13.52;4.68;;;11.30;99.90;;;;;;4935065;29;20023;-64
2023/03/18 02:51:06;;;;;;;13.00;4.18;;;11.30;99.90;;;;;;4935532;29;20106;-64
2023/03/18 02:53:32;;;;;;;14.93;4.68;;;11.10;99.90;;;;;;4935646;29;20036;-64
2023/03/18 02:55:58;;;;;;;12.70;4.20;;;11.00;99.90;;;;;;4935236;29;20554;-64
2023/03/18 02:58:24;;;;;;;13.63;4.65;;;11.00;99.90;;;;;;4938876;29;20042;-63
2023/03/18 03:00:50;;;;;;;12.20;4.40;;;11.00;99.90;;;;;;4954218;28;20035;-64
2023/03/18 03:03:17;;;;;;;13.20;4.50;;;11.20;99.90;;;;;;4954375;29;20029;-64
2023/03/18 03:05:43;;;;;;;14.30;4.90;;;11.10;99.90;;;;;;4953818;29;20039;-63
2023/03/18 03:08:09;;;;;;;13.27;4.40;;;11.10;99.90;;;;;;4957968;28;20066;-64
2023/03/18 03:10:35;;;;;;;16.60;4.85;;;11.20;99.90;;;;;;4973314;28;20035;-64
2023/03/18 03:13:01;;;;;;;14.32;5.13;;;11.20;99.90;;;;;;4973129;28;20125;-64
2023/03/18 03:15:27;;;;;;;15.07;4.78;;;11.30;99.90;;;;;;4973235;28;20492;-64
2023/03/18 03:17:53;;;;;;;15.38;4.28;;;11.20;99.90;;;;;;4983292;28;20134;-64
2023/03/18 03:20:20;;;;;;;12.50;4.40;;;11.30;99.90;;;;;;5053779;28;20172;-64
2023/03/18 03:22:46;;;;;;;12.48;4.10;;;11.20;99.90;;;;;;5053954;28;20398;-64
2023/03/18 03:25:12;;;;;;;12.93;4.38;;;11.20;99.90;;;;;;5053992;28;20031;-64
2023/03/18 03:27:37;;;;;;;12.05;4.30;;;11.20;99.90;;;;;;5053992;28;20487;-64
2023/03/18 03:30:10;;;;;;;11.75;4.28;;;11.30;99.90;;;;;;5053915;28;20039;-64
2023/03/18 03:32:37;;;;;;;13.43;4.20;;;11.20;99.90;;;;;;5054068;28;20111;-64
2023/03/18 03:35:04;;;;;;;11.45;4.05;;;11.10;99.90;;;;;;5053334;28;20760;-64
2023/03/18 03:37:29;;;;;;;13.88;4.07;;;11.10;99.90;;;;;;5054097;28;20111;-64
2023/03/18 03:39:55;;;;;;;13.02;5.30;;;11.20;99.90;;;;;;5053368;28;20542;-64
2023/03/18 03:42:21;;;;;;;11.18;3.83;;;11.00;99.90;;;;;;5053713;28;20048;-64
2023/03/18 03:44:46;;;;;;;13.95;4.20;;;11.00;99.90;;;;;;5053628;28;20032;-64
2023/03/18 03:47:12;;;;;;;14.98;4.28;;;10.80;99.90;;;;;;5053973;28;20017;-64
2023/03/18 03:49:38;;;;;;;13.63;3.95;;;10.70;99.90;;;;;;5053154;28;20025;-64
2023/03/18 03:52:05;;;;;;;10.93;3.88;;;10.70;99.90;;;;;;5053444;28;20028;-64
2023/03/18 03:54:30;;;;;;;11.40;3.72;;;10.80;99.90;;;;;;5053610;28;20481;-64
2023/03/18 03:56:57;;;;;;;15.05;4.25;;;10.80;99.90;;;;;;5053424;28;20408;-64
2023/03/18 03:59:22;;;;;;;15.20;4.32;;;10.90;99.90;;;;;;5053223;28;20047;-64
2023/03/18 04:01:49;;;;;;;16.30;4.50;;;10.90;99.90;;;;;;5053931;28;20478;-64
2023/03/18 04:04:15;;;;;;;13.35;4.70;;;10.90;99.90;;;;;;5052894;28;20025;-64
2023/03/18 04:06:41;;;;;;;11.80;4.28;;;10.80;99.90;;;;;;5053172;28;20039;-63
2023/03/18 04:09:07;;;;;;;9.60;3.55;;;10.90;99.90;;;;;;5053617;28;20025;-64
2023/03/18 04:11:33;;;;;;;14.85;4.13;;;10.90;99.90;;;;;;5053019;28;20426;-64
2023/03/18 04:13:58;;;;;;;10.90;3.60;;;10.80;99.90;;;;;;5052920;28;20103;-64
2023/03/18 04:16:24;;;;;;;14.40;3.80;;;11.00;99.90;;;;;;5052951;28;20477;-64
2023/03/18 04:18:50;;;;;;;12.30;4.10;;;10.90;99.90;;;;;;5052560;28;20104;-64
2023/03/18 04:21:16;;;;;;;16.20;4.15;;;11.00;99.90;;;;;;5053304;28;20063;-64
2023/03/18 04:23:42;;;;;;;13.85;4.22;;;10.90;99.90;;;;;;5052755;28;20066;-64
2023/03/18 04:26:08;;;;;;;12.45;3.88;;;10.90;99.90;;;;;;5052703;28;20025;-64
2023/03/18 04:28:34;;;;;;;13.30;3.72;;;10.90;99.90;;;;;;5053174;28;20398;-64
2023/03/18 04:30:59;;;;;;;11.35;3.65;;;10.80;99.90;;;;;;5052781;28;20028;-64
2023/03/18 04:33:26;;;;;;;13.48;3.80;;;10.90;99.90;;;;;;5052414;28;20029;-64
2023/03/18 04:35:52;;;;;;;13.45;4.03;;;10.80;99.90;;;;;;5052592;28;20013;-64
2023/03/18 04:38:19;;;;;;;17.02;4.22;;;10.90;99.90;;;;;;5052961;28;20036;-64
2023/03/18 04:40:45;;;;;;;15.05;4.38;;;10.90;99.90;;;;;;5052379;28;20040;-63
2023/03/18 04:43:10;;;;;;;15.60;3.97;;;10.90;99.90;;;;;;5052664;28;20029;-64
2023/03/18 04:45:36;;;;;;;14.18;3.90;;;10.90;99.90;;;;;;5051231;28;20545;-64
2023/03/18 04:48:03;;;;;;;13.98;4.10;;;10.80;99.90;;;;;;5052024;28;20033;-64
2023/03/18 04:50:28;;;;;;;14.27;3.90;;;10.80;99.90;;;;;;5051871;28;20031;-64
2023/03/18 04:52:54;;;;;;;13.60;3.67;;;10.80;99.90;;;;;;5052834;28;20092;-64
2023/03/18 04:55:20;;;;;;;12.95;3.83;;;10.80;99.90;;;;;;5052263;28;20033;-64
2023/03/18 04:57:47;;;;;;;14.57;4.38;;;10.80;99.90;;;;;;5052367;28;20108;-64
2023/03/18 05:00:20;;;;;;;13.13;3.85;;;10.70;99.90;;;;;;5052288;28;20033;-64
2023/03/18 05:02:45;;;;;;;13.38;4.07;;;10.70;99.90;;;;;;5052191;28;20055;-64
2023/03/18 05:05:11;;;;;;;14.40;4.13;;;10.70;99.90;;;;;;5052151;28;20056;-64
2023/03/18 05:07:37;;;;;;;12.73;3.92;;;10.60;99.90;;;;;;5052208;28;20032;-64
2023/03/18 05:10:05;;;;;;;16.98;4.22;;;10.60;99.90;;;;;;5051925;28;20495;-64
2023/03/18 05:12:32;;;;;;;14.15;4.07;;;10.70;99.90;;;;;;5052282;28;20509;-64
2023/03/18 05:14:57;;;;;;;17.20;5.22;;;10.70;99.90;;;;;;5052115;28;20040;-64
2023/03/18 05:17:24;;;;;;;17.67;5.50;;;10.80;99.90;;;;;;5051777;28;20033;-64
2023/03/18 05:19:50;;;;;;;13.52;4.43;;;10.60;99.90;;;;;;5051904;28;20576;-64
2023/03/18 05:22:18;;;;;;;15.38;4.20;;;10.70;99.90;;;;;;5052013;28;20017;-64
2023/03/18 05:24:47;;;;;;;13.90;4.20;;;10.70;99.90;;;;;;5051901;28;20092;-64
2023/03/18 05:27:16;;;;;;;15.25;3.80;;;10.70;99.90;;;;;;5052040;28;20123;-64
2023/03/18 05:29:42;;;;;;;14.55;4.10;;;10.70;99.90;;;;;;5052096;28;20481;-63
2023/03/18 05:32:08;;;;;;;13.35;4.15;;;10.60;99.90;;;;;;5051860;28;20029;-64
2023/03/18 05:34:38;;;;;;;12.65;4.03;;;10.60;99.90;;;;;;5051987;28;20017;-64
2023/03/18 05:37:07;;;;;;;15.02;4.05;;;10.70;99.90;;;;;;5051912;28;20440;-64
2023/03/18 05:39:33;;;;;;;14.27;3.80;;;10.70;99.90;;;;;;5051776;28;20025;-64
2023/03/18 05:41:59;;;;;;;15.98;4.15;;;10.70;99.90;;;;;;5052306;28;20021;-64
2023/03/18 05:44:27;;;;;;;14.48;4.32;;;10.60;99.90;;;;;;5051480;28;20021;-65
2023/03/18 05:46:52;;;;;;;13.45;3.92;;;10.60;99.90;;;;;;5051824;28;20017;-64
2023/03/18 05:49:19;;;;;;;15.15;4.00;;;10.60;99.90;;;;;;5051716;28;20371;-64
2023/03/18 05:51:45;;;;;;;14.02;4.13;;;10.60;99.90;;;;;;5051896;28;20503;-64
2023/03/18 05:54:12;;;;;;;14.95;3.95;;;10.70;99.90;;;;;;5051721;28;20017;-65
2023/03/18 05:56:38;;;;;;;14.65;4.00;;;10.50;99.90;;;;;;5051932;28;20033;-65
2023/03/18 05:59:05;;;;;;;14.65;3.80;;;10.50;99.90;;;;;;5051182;28;20080;-64
2023/03/18 06:01:32;;;;;;;17.13;4.22;;;10.40;99.90;;;;;;5051537;28;20374;-64
2023/03/18 06:03:59;;;;;;;15.43;4.35;;;10.40;99.90;;;;;;5054016;28;20426;-64
2023/03/18 06:06:25;;;;;;;15.80;4.00;;;10.40;99.90;;;;;;5056039;28;20025;-64
2023/03/18 06:08:52;;;;;;;17.75;4.07;;;10.50;99.90;;;;;;5055697;28;20115;-64
2023/03/18 06:11:18;;;;;;;19.73;4.78;;;10.50;99.90;;;;;;5055507;28;20021;-64
2023/03/18 06:13:44;;;;;;;16.00;4.75;;;10.50;99.90;;;;;;5054883;28;20425;-65
2023/03/18 06:16:10;;;;;;;15.27;4.32;;;10.50;99.90;;;;;;5055152;28;20044;-64
2023/03/18 06:18:36;;;;;;;17.08;4.85;;;10.50;99.90;;;;;;5055351;28;20033;-64
2023/03/18 06:21:03;;;;;;;17.88;4.40;;;10.50;99.90;;;;;;5055804;28;20040;-64
2023/03/18 06:23:30;;;;;;;15.35;4.28;;;10.50;99.90;;;;;;5055092;28;20029;-64
2023/03/18 06:25:56;;;;;;;15.50;4.43;;;10.60;99.90;;;;;;5055150;28;20104;-64
2023/03/18 06:28:21;;;;;;;16.10;4.18;;;10.60;99.90;;;;;;5054786;28;20117;-64
2023/03/18 06:30:47;;;;;;;19.00;4.20;;;10.60;99.90;;;;;;5055299;28;20025;-64
2023/03/18 06:33:14;;;;;;;14.40;4.47;;;10.60;99.90;;;;;;5055211;28;20391;-64
2023/03/18 06:35:40;;;;;;;14.65;4.18;;;10.60;99.90;;;;;;5054812;28;20410;-64
2023/03/18 06:38:07;;;;;;;16.50;4.70;;;10.70;99.90;;;;;;5055389;28;20025;-64
2023/03/18 06:40:33;;;;;;;20.35;5.22;;;10.60;99.90;;;;;;5054860;28;20115;-64
2023/03/18 06:42:59;;;;;;;19.63;5.10;;;10.70;99.90;;;;;;5054429;28;20121;-64
2023/03/18 06:45:25;;;;;;;17.70;4.55;;;10.80;99.90;;;;;;5054639;28;20029;-65
2023/03/18 06:47:50;;;;;;;20.13;4.53;;;10.90;99.90;;;;;;5054837;28;20036;-65
2023/03/18 06:50:16;;;;;;;20.80;4.65;;;10.90;99.90;;;;;;5054644;28;20032;-64
2023/03/18 06:52:42;;;;;;;15.93;5.18;;;10.90;99.90;;;;;;5055031;28;20036;-65
2023/03/18 06:55:09;;;;;;;21.30;5.45;;;11.00;99.90;;;;;;5054391;28;20025;-65
2023/03/18 06:57:35;;;;;;;19.33;5.07;;;10.90;99.90;;;;;;5054212;28;20104;-64
2023/03/18 07:00:01;;;;;;;16.67;4.75;;;11.00;99.90;;;;;;5053512;28;20112;-64
2023/03/18 07:02:26;;;;;;;18.67;4.88;;;10.90;99.90;;;;;;5054055;28;20445;-64
2023/03/18 07:04:53;;;;;;;17.63;5.00;;;11.10;99.90;;;;;;5054261;28;20048;-64
2023/03/18 07:07:21;;;;;;;21.70;5.20;;;11.40;99.90;;;;;;5054531;28;20108;-64
2023/03/18 07:09:46;;;;;;;15.15;4.50;;;11.50;99.90;;;;;;5054395;28;20402;-64
2023/03/18 07:12:13;;;;;;;15.63;4.20;;;12.10;99.90;;;;;;5053615;28;20048;-65
2023/03/18 07:14:41;;;;;;;17.85;4.75;;;12.50;99.90;;;;;;5053528;28;20029;-64
2023/03/18 07:17:09;;;;;;;18.73;5.18;;;12.60;99.90;;;;;;5049124;28;20076;-64
2023/03/18 07:19:35;;;;;;;15.73;4.22;;;13.00;99.90;;;;;;5036256;28;20413;-63
2023/03/18 07:22:01;;;;;;;34.05;29.75;;;13.50;99.90;;;;;;5040207;28;20032;-64
2023/03/18 07:24:27;;;;;;;13.20;4.85;;;14.90;99.90;;;;;;5052293;28;20493;-64
2023/03/18 07:26:53;;;;;;;12.63;3.70;;;17.80;99.90;;;;;;5051683;28;20405;-65
2023/03/18 07:29:19;;;;;;;14.27;4.22;;;19.50;99.90;;;;;;5054169;28;20092;-64
2023/03/18 07:31:45;;;;;;;15.75;4.00;;;20.20;99.90;;;;;;5052938;28;20032;-63
2023/03/18 07:34:12;;;;;;;14.45;4.25;;;18.60;99.90;;;;;;5053616;28;20029;-64
2023/03/18 07:36:38;;;;;;;14.25;4.28;;;16.80;99.90;;;;;;5053782;28;20052;-65
2023/03/18 07:39:05;;;;;;;16.23;4.30;;;15.70;99.90;;;;;;5052775;28;20028;-64
2023/03/18 07:41:31;;;;;;;18.17;4.28;;;15.10;99.90;;;;;;5040686;28;20029;-64
2023/03/18 07:43:56;;;;;;;14.27;3.90;;;15.20;99.90;;;;;;5053536;28;20363;-64
2023/03/18 07:46:22;;;;;;;12.93;3.80;;;17.30;99.90;;;;;;5053725;28;20025;-64
2023/03/18 07:48:48;;;;;;;14.80;3.72;;;21.70;99.90;;;;;;5053244;28;20032;-64
2023/03/18 07:51:14;;;;;;;13.45;3.75;;;19.60;99.90;;;;;;5053621;28;20036;-64
2023/03/18 07:53:41;;;;;;;13.85;4.78;;;17.70;99.90;;;;;;5053647;28;20052;-64
2023/03/18 07:56:08;;;;;;;15.65;4.07;;;16.70;99.90;;;;;;5052809;28;20104;-64
2023/03/18 07:58:34;;;;;;;12.60;3.50;;;16.60;99.90;;;;;;5053184;28;20029;-64
2023/03/18 08:01:01;;;;;;;14.50;4.03;;;16.60;99.90;;;;;;5052308;28;20082;-63
2023/03/18 08:03:27;;;;;;;9.68;3.28;;;16.50;99.90;;;;;;5052329;28;20036;-65
2023/03/18 08:05:53;;;;;;;13.55;4.00;;;16.30;99.90;;;;;;5053477;28;20021;-65
2023/03/18 08:08:20;;;;;;;13.48;3.55;;;16.40;99.90;;;;;;5053291;28;20093;-64
2023/03/18 08:10:46;;;;;;;11.95;3.67;;;16.50;99.90;;;;;;5052808;28;20099;-64
2023/03/18 08:13:12;;;;;;;13.75;4.15;;;17.80;99.90;;;;;;5052871;28;20048;-64
2023/03/18 08:15:39;;;;;;;13.80;3.75;;;19.70;99.90;;;;;;5052908;28;20532;-64
2023/03/18 08:18:05;;;;;;;14.27;3.75;;;18.40;99.90;;;;;;5053100;28;20054;-64
2023/03/18 08:20:30;;;;;;;9.85;3.70;;;17.80;99.90;;;;;;5053028;28;20040;-64
2023/03/18 08:22:56;;;;;;;13.75;3.65;;;17.60;99.90;;;;;;5052731;28;20028;-64
2023/03/18 08:25:22;;;;;;;13.10;3.67;;;16.90;99.90;;;;;;5051722;28;20021;-64
2023/03/18 08:27:51;;;;;;;10.02;3.20;;;16.50;99.90;;;;;;5052799;28;20048;-64
2023/03/18 08:30:17;;;;;;;11.05;3.22;;;17.00;99.90;;;;;;5052759;28;20033;-64
2023/03/18 08:32:43;;;;;;;11.77;3.40;;;17.30;99.90;;;;;;5052565;28;20052;-64
2023/03/18 08:35:10;;;;;;;11.52;3.10;;;17.20;99.90;;;;;;5053016;28;20437;-64
2023/03/18 08:37:37;;;;;;;9.80;2.88;;;16.40;99.90;;;;;;5052600;28;20053;-64
2023/03/18 08:40:03;;;;;;;11.27;3.20;;;16.30;99.90;;;;;;5052250;28;20027;-64
2023/03/18 08:42:29;;;;;;;9.50;3.00;;;16.50;99.90;;;;;;5052504;28;20538;-64
2023/03/18 08:44:56;;;;;;;8.35;2.70;;;16.80;99.90;;;;;;5052816;28;20029;-64
2023/03/18 08:47:23;;;;;;;10.18;3.03;;;18.60;99.90;;;;;;5052404;28;20049;-63
2023/03/18 08:49:50;;;;;;;8.82;2.92;;;23.10;99.90;;;;;;5052395;28;20066;-64
2023/03/18 08:52:16;;;;;;;10.43;2.72;;;30.50;99.90;;;;;;5052369;28;20033;-64
2023/03/18 08:54:42;;;;;;;8.05;2.40;;;28.20;99.90;;;;;;5052047;28;20118;-64
2023/03/18 08:57:08;;;;;;;9.15;2.75;;;23.60;99.90;;;;;;5052275;28;20545;-64
2023/03/18 08:59:35;;;;;;;8.90;2.80;;;22.40;99.90;;;;;;5052248;28;20045;-65
2023/03/18 09:02:02;;;;;;;8.10;2.38;;;29.00;99.90;;;;;;5052020;28;20013;-65
2023/03/18 09:04:28;;;;;;;6.43;2.38;;;32.80;99.90;;;;;;5052612;28;20029;-65
2023/03/18 09:06:54;;;;;;;6.47;2.10;;;33.30;99.90;;;;;;5052230;28;20477;-65
2023/03/18 09:09:20;;;;;;;5.53;2.22;;;33.20;99.90;;;;;;5052006;28;20044;-65
2023/03/18 09:11:46;;;;;;;5.00;1.70;;;33.00;99.90;;;;;;5052046;28;20041;-65
2023/03/18 09:14:12;;;;;;;4.32;1.98;;;33.50;99.90;;;;;;5052430;28;20088;-65
2023/03/18 09:16:38;;;;;;;5.72;1.88;;;34.40;99.90;;;;;;5052257;28;20027;-65
2023/03/18 09:19:04;;;;;;;5.43;1.67;;;36.30;99.90;;;;;;5051985;28;20053;-66
2023/03/18 09:21:30;;;;;;;3.63;1.50;;;34.70;99.90;;;;;;5050613;28;20048;-65
2023/03/18 09:23:56;;;;;;;4.93;1.88;;;34.00;99.90;;;;;;5051714;28;20052;-65
2023/03/18 09:26:22;;;;;;;5.15;1.67;;;33.30;99.90;;;;;;5052171;28;20477;-65
2023/03/18 09:28:49;;;;;;;3.10;1.30;;;28.80;99.90;;;;;;5052019;28;20033;-65
2023/03/18 09:31:14;;;;;;;3.58;1.55;;;26.30;99.90;;;;;;5051976;28;20029;-64
2023/03/18 09:33:41;;;;;;;3.38;1.60;;;24.40;99.90;;;;;;5051965;28;20037;-65
2023/03/18 09:36:08;;;;;;;4.20;1.92;;;23.90;99.90;;;;;;5052318;28;20025;-65
2023/03/18 09:38:36;;;;;;;5.70;2.30;;;23.90;99.90;;;;;;5053886;28;20052;-65
2023/03/18 09:41:21;;;;;;;4.63;2.00;;;26.70;99.90;;;;;;5056062;28;20028;-65
2023/03/18 09:43:51;;;;;;;4.47;1.55;;;26.30;99.90;;;;;;5056346;28;20037;-65
2023/03/18 09:46:23;;;;;;;4.18;1.50;;;25.90;99.90;;;;;;5055998;28;20035;-65
2023/03/18 09:49:11;;;;;;;3.78;1.40;;;29.20;99.90;;;;;;5056045;28;20029;-65
2023/03/18 09:51:52;;;;;;;3.40;1.30;;;30.50;99.90;;;;;;5055408;28;20037;-64
2023/03/18 09:54:44;;;;;;;3.15;1.30;;;31.50;99.90;;;;;;5055718;28;20033;-65
2023/03/18 09:57:25;;;;;;;3.40;1.35;;;29.40;99.90;;;;;;5055801;28;20554;-64
2023/03/18 10:00:32;;;;;;;4.25;1.45;;;29.00;99.90;;;;;;5055573;28;20493;-64
2023/03/18 10:03:26;;;;;;;3.13;1.10;;;30.60;99.90;;;;;;5052375;28;20029;-65
2023/03/18 10:06:05;;;;;;;3.00;1.15;;;29.00;99.90;;;;;;5055309;28;20367;-64
2023/03/18 10:09:02;;;;;;;2.63;1.20;;;26.90;99.90;;;;;;5055834;28;20029;-64
2023/03/18 10:11:49;;;;;;;3.50;1.20;;;24.80;99.90;;;;;;5055250;28;20069;-65
2023/03/18 10:14:31;;;;;;;3.75;1.23;;;24.10;99.90;;;;;;5055715;28;20033;-64
2023/03/18 10:17:17;;;;;;;2.72;1.20;;;25.00;99.90;;;;;;5055651;28;20037;-64
2023/03/18 10:19:53;;;;;;;2.88;1.10;;;24.40;99.90;;;;;;5054849;28;20063;-65
2023/03/18 10:22:51;;;;;;;1.90;1.10;;;23.80;99.90;;;;;;5055275;28;20021;-65
2023/03/18 10:25:56;;;;;;;4.10;1.20;;;22.70;99.90;;;;;;5055034;28;20029;-64
2023/03/18 10:28:34;;;;;;;3.30;1.17;;;21.40;99.90;;;;;;5054889;28;20029;-64
2023/03/18 10:31:12;;;;;;;2.28;1.00;;;21.70;99.90;;;;;;5055024;28;20040;-65
2023/03/18 10:33:50;;;;;;;2.60;1.00;;;21.80;99.90;;;;;;5053692;28;20028;-64
2023/03/18 10:36:50;;;;;;;2.38;1.23;;;22.90;99.90;;;;;;5054577;28;20091;-64
2023/03/18 10:39:22;;;;;;;2.67;1.20;;;23.00;99.90;;;;;;5055138;28;20036;-66
2023/03/18 10:41:50;;;;;;;3.08;1.27;;;22.40;99.90;;;;;;5055253;28;20482;-64
2023/03/18 10:44:27;;;;;;;2.38;1.20;;;22.90;99.90;;;;;;5054854;28;20028;-64
2023/03/18 10:47:02;;;;;;;3.65;1.20;;;23.20;99.90;;;;;;5054789;28;20503;-65
2023/03/18 10:49:33;;;;;;;3.75;1.02;;;24.10;99.90;;;;;;5053748;28;20052;-65
2023/03/18 10:52:40;;;;;;;1.80;0.95;;;23.10;99.90;;;;;;5054571;28;20016;-64
2023/03/18 10:55:16;;;;;;;2.13;1.02;;;22.40;99.90;;;;;;4993033;28;20467;-64
2023/03/18 10:57:43;;;;;;;2.38;1.08;;;22.10;99.90;;;;;;4993110;28;20042;-64
2023/03/18 11:00:31;;;;;;;2.72;0.90;;;22.90;99.90;;;;;;4992888;28;20459;-64
2023/03/18 11:02:58;;;;;;;2.17;1.02;;;23.60;99.90;;;;;;4992774;28;20030;-64
2023/03/18 11:05:34;;;;;;;2.45;1.00;;;23.20;99.90;;;;;;4992565;28;20435;-65
2023/03/18 11:08:02;;;;;;;1.45;0.90;;;23.10;99.90;;;;;;4993033;28;20030;-65
2023/03/18 11:10:34;;;;;;;3.58;1.00;;;22.50;99.90;;;;;;4993332;28;20404;-65
2023/03/18 11:13:05;;;;;;;3.92;1.25;;;22.70;99.90;;;;;;4992779;28;20597;-65
2023/03/18 11:15:39;;;;;;;2.70;1.15;;;22.60;99.90;;;;;;4992723;28;20046;-66
2023/03/18 11:18:04;;;;;;;2.83;1.17;;;22.20;99.90;;;;;;4992548;28;20140;-66
2023/03/18 11:20:46;;;;;;;3.30;1.10;;;21.30;99.90;;;;;;4992504;28;20406;-66
2023/03/18 11:23:55;;;;;;;2.28;1.10;;;21.10;99.90;;;;;;4992748;28;20030;-65
2023/03/18 11:26:30;;;;;;;2.28;1.10;;;20.80;99.90;;;;;;4992495;28;20034;-65
2023/03/18 11:29:08;;;;;;;1.27;0.90;;;21.90;99.90;;;;;;4992627;28;20065;-65
2023/03/18 11:31:48;;;;;;;1.80;1.00;;;21.40;99.90;;;;;;5007418;28;20087;-65
2023/03/18 11:34:18;;;;;;;3.45;1.33;;;22.00;99.90;;;;;;5054042;28;20070;-65
2023/03/18 11:37:03;;;;;;;1.98;1.00;;;22.90;99.90;;;;;;5053511;28;20040;-65
2023/03/18 11:39:36;;;;;;;4.53;1.20;;;22.20;99.90;;;;;;5054097;28;20045;-65
2023/03/18 11:42:16;;;;;;;1.88;1.00;;;21.90;99.90;;;;;;5053742;28;20043;-65
2023/03/18 11:44:42;;;;;;;1.33;0.90;;;21.80;99.90;;;;;;5053737;28;20036;-65
2023/03/18 11:47:29;;;;;;;6.22;1.40;;;21.10;99.90;;;;;;5053285;28;20354;-65
2023/03/18 11:49:56;;;;;;;3.80;1.27;;;21.90;99.90;;;;;;5053264;28;20013;-64
2023/03/18 11:52:47;;;;;;;4.70;1.10;;;22.20;99.90;;;;;;5053485;28;20028;-65
2023/03/18 11:55:34;;;;;;;2.78;1.17;;;21.40;99.90;;;;;;5053896;28;20037;-65
2023/03/18 11:58:05;;;;;;;2.72;1.33;;;21.00;99.90;;;;;;5053359;28;20485;-65
2023/03/18 12:00:36;;;;;;;4.05;1.23;;;21.20;99.90;;;;;;5053419;28;20044;-66
2023/03/18 12:03:23;;;;;;;4.30;1.05;;;20.90;99.90;;;;;;5053071;28;20028;-65
2023/03/18 12:05:52;;;;;;;3.50;1.25;;;20.50;99.90;;;;;;5053303;28;20040;-65
2023/03/18 12:08:36;;;;;;;3.85;1.20;;;20.60;99.90;;;;;;5053616;28;20044;-65
2023/03/18 12:11:15;;;;;;;3.60;1.30;;;20.40;99.90;;;;;;5053099;28;20033;-65
2023/03/18 12:13:54;;;;;;;3.65;1.27;;;20.20;99.90;;;;;;5052882;28;20075;-65
2023/03/18 12:16:44;;;;;;;3.58;1.30;;;20.00;99.90;;;;;;5052850;28;20029;-65
2023/03/18 12:19:39;;;;;;;3.22;1.20;;;20.30;99.90;;;;;;5052619;28;20033;-65
2023/03/18 12:22:27;;;;;;;4.18;1.10;;;20.00;99.90;;;;;;5053560;28;20044;-65
2023/03/18 12:25:00;;;;;;;2.65;1.10;;;19.80;99.90;;;;;;5052635;28;20489;-65
2023/03/18 12:28:01;;;;;;;3.40;1.00;;;19.40;99.90;;;;;;5052922;28;20025;-64
2023/03/18 12:30:55;;;;;;;2.20;1.10;;;19.50;99.90;;;;;;5010684;28;20045;-64
2023/03/18 12:33:55;;;;;;;3.90;1.10;;;20.30;99.90;;;;;;5010831;28;20108;-65
2023/03/18 12:36:24;;;;;;;2.38;0.82;;;19.40;99.90;;;;;;5010919;28;20038;-64
2023/03/18 12:39:02;;;;;;;3.97;1.20;;;19.80;99.90;;;;;;5011044;28;20482;-64
2023/03/18 12:41:42;;;;;;;2.97;0.90;;;19.60;99.90;;;;;;5010700;28;20104;-65
2023/03/18 12:44:11;;;;;;;4.63;1.15;;;20.00;99.90;;;;;;5010578;28;20093;-64
2023/03/18 12:46:47;;;;;;;2.75;1.15;;;19.40;99.90;;;;;;5010343;28;20037;-65
2023/03/18 12:49:42;;;;;;;3.33;1.10;;;18.90;99.90;;;;;;5010412;28;20034;-64
2023/03/18 12:52:26;;;;;;;6.30;1.10;;;19.00;99.90;;;;;;5010653;28;20030;-64
2023/03/18 12:55:14;;;;;;;1.38;0.85;;;19.20;99.90;;;;;;5010570;28;20018;-65
2023/03/18 12:57:44;;;;;;;2.80;1.10;;;18.90;99.90;;;;;;5010636;28;20049;-65